Tuppence — 2ENUS — position and weather

sailwx.info

Track history (hours):
 
Tides and Currents Weather Stations Pressure Air Temp Water Temp Dewpoint Dewpoint Depression Visibility Wind Speed Wind Dir Waves Ship Positions

Tuppence

Last reported at 2018-Jun-02 10:47 UTC. Time now 2018-Jun-21 22:08 UTC.
Position N 43°37' E 010°11'.
Warning: this ship's position is 19 days out of date.

Length 30 m.

Type: Pleasure craft. MMSI: 235086696.

Date/timePositionNaut miles runAvg speedWind from/ knotsBaromVisibWave heightAir tempDewpointWater temp
2018-Jun-02 10:47N 43°37' E 010°11'310.5
2018-Jun-02 10:30N 43°39' E 010°14'2 0.1
2018-Jun-01 12:44N 43°40' E 010°15'2 9.4
2018-Jun-01 12:30N 43°38' E 010°16'2 5.0
2018-Jun-01 12:00N 43°41' E 010°16'0 0.3
2018-Jun-01 11:24N 43°41' E 010°16'0 0.0
2018-Jun-01 11:00N 43°41' E 010°16'0 0.0
2018-Jun-01 10:30N 43°41' E 010°16'0 0.0
2018-Jun-01 10:00N 43°41' E 010°16'0 0.0
2018-Jun-01 09:21N 43°41' E 010°16'0 0.0
2018-Jun-01 09:00N 43°41' E 010°16'0 0.0
2018-Jun-01 08:21N 43°41' E 010°16'0 0.0
2018-Jun-01 07:57N 43°41' E 010°16'0 0.0
2018-Jun-01 07:24N 43°41' E 010°16'0 0.0
2018-Jun-01 07:00N 43°41' E 010°16'0 0.0
2018-Jun-01 06:30N 43°41' E 010°16'0 0.0
2018-Jun-01 06:00N 43°41' E 010°16'0 0.0
2018-May-31 20:51N 43°41' E 010°16'0 0.0
2018-May-31 20:24N 43°41' E 010°16'0 0.0
2018-May-31 19:24N 43°41' E 010°16'0 0.0
2018-May-31 18:36N 43°41' E 010°16'0 0.0
2018-May-31 18:18N 43°41' E 010°16'0 0.0
2018-May-31 15:55N 43°41' E 010°16'0 0.0
2018-May-31 03:32N 43°41' E 010°16'0 0.0
2018-May-31 03:29N 43°41' E 010°16'0 0.0
2018-May-31 00:12N 43°41' E 010°16'0 0.0
2018-May-30 23:57N 43°41' E 010°16'0 0.0
2018-May-30 23:24N 43°41' E 010°16'0 0.0
2018-May-30 22:57N 43°41' E 010°16'0 0.0
2018-May-30 22:21N 43°41' E 010°16'0 0.0
2018-May-30 20:21N 43°41' E 010°16'0 0.0
2018-May-30 19:48N 43°41' E 010°16'0 0.0
2018-May-30 19:27N 43°41' E 010°16'0 0.0
2018-May-30 19:00N 43°41' E 010°16'0 0.0
2018-May-30 18:30N 43°41' E 010°16'0 0.0
2018-May-30 17:48N 43°41' E 010°16'0 0.0
2018-May-30 17:30N 43°41' E 010°16'0 0.0
2018-May-30 16:54N 43°41' E 010°16'0 0.0
2018-May-30 16:30N 43°41' E 010°16'0 0.0
2018-May-30 15:57N 43°41' E 010°16'0 0.0
2018-May-30 15:24N 43°41' E 010°16'0 0.0
2018-May-30 14:54N 43°41' E 010°16'0 0.1
2018-May-30 14:30N 43°41' E 010°16'1 1.2
2018-May-30 13:58N 43°41' E 010°15'0 0.0
2018-May-30 13:28N 43°41' E 010°15'3 7.4
2018-May-30 13:00N 43°43' E 010°12'611.4
2018-May-30 12:30N 43°48' E 010°07'510.6
2018-May-30 12:00N 43°52' E 010°03'510.7
2018-May-30 11:30N 43°56' E 009°58'510.6
2018-May-30 11:00N 44°00' E 009°54'4 6.1
2018-May-30 10:22N 44°03' E 009°50'0 0.0
2018-May-30 09:58N 44°03' E 009°50'0 0.0
2018-May-30 09:22N 44°03' E 009°50'0 0.0
2018-May-30 08:58N 44°03' E 009°50'0 0.0
2018-May-30 08:28N 44°03' E 009°50'0 0.0
2018-May-30 07:52N 44°03' E 009°50'0 0.0
2018-May-30 07:19N 44°03' E 009°50'0 0.0
2018-May-30 06:55N 44°03' E 009°50'0 0.0
2018-May-30 06:28N 44°03' E 009°50'0 0.0
2018-May-30 05:58N 44°03' E 009°50'0 0.0
2018-May-30 05:28N 44°03' E 009°50'0 0.0
2018-May-30 04:58N 44°03' E 009°50'0 0.0
2018-May-30 04:28N 44°03' E 009°50'0 0.0
2018-May-30 03:58N 44°03' E 009°50'0 0.0
2018-May-30 03:28N 44°03' E 009°50'0 0.0
2018-May-30 02:58N 44°03' E 009°50'0 0.0
2018-May-30 02:25N 44°03' E 009°50'0 0.0
2018-May-30 01:58N 44°03' E 009°50'0 0.0
2018-May-30 01:28N 44°03' E 009°50'0 0.0
2018-May-30 00:55N 44°03' E 009°50'0 0.0
2018-May-30 00:28N 44°03' E 009°50'0 0.0
2018-May-29 23:58N 44°03' E 009°50'0 0.0
2018-May-29 23:28N 44°03' E 009°50'0 0.0
2018-May-29 22:58N 44°03' E 009°50'0 0.0
2018-May-29 22:28N 44°03' E 009°50'0 0.0
2018-May-29 21:58N 44°03' E 009°50'0 0.0
2018-May-29 21:28N 44°03' E 009°50'0 0.0
2018-May-29 20:58N 44°03' E 009°50'0 0.0
2018-May-29 20:28N 44°03' E 009°50'0 0.0
2018-May-29 19:58N 44°03' E 009°50'0 0.0
2018-May-29 19:28N 44°03' E 009°50'0 0.0
2018-May-29 18:55N 44°03' E 009°50'0 0.0
2018-May-29 18:28N 44°03' E 009°50'0 0.0
2018-May-29 17:58N 44°03' E 009°50'0 0.0
2018-May-29 17:28N 44°03' E 009°50'0 0.0
2018-May-29 16:58N 44°03' E 009°50'0 0.0
2018-May-29 16:28N 44°03' E 009°50'0 0.4
2018-May-29 16:00N 44°03' E 009°50'0 0.5
2018-May-29 15:30N 44°03' E 009°51'0 0.0
2018-May-29 15:00N 44°03' E 009°51'0 0.0
2018-May-29 14:29N 44°03' E 009°51'0 0.0
2018-May-29 13:59N 44°03' E 009°51'0 0.0
2018-May-29 13:29N 44°03' E 009°51'2 4.4
2018-May-29 13:01N 44°02' E 009°53'5 9.0
2018-May-29 12:28N 43°60' E 009°59'4 8.8
2018-May-29 11:59N 43°57' E 010°04'4 8.7
2018-May-29 11:31N 43°55' E 010°09'4 8.3
2018-May-29 11:00N 43°53' E 010°13'1 2.2
2018-May-29 10:29N 43°52' E 010°15'0 0.0
2018-May-29 09:58N 43°52' E 010°15'0 0.0
2018-May-29 09:28N 43°52' E 010°15'0 0.0
2018-May-29 08:55N 43°52' E 010°15'0 0.0
2018-May-29 08:22N 43°52' E 010°15'0 0.0
2018-May-29 07:58N 43°52' E 010°15'0 0.0
2018-May-29 07:28N 43°52' E 010°15'0 0.0
2018-May-29 06:55N 43°52' E 010°15'0 0.0
2018-May-29 06:28N 43°52' E 010°15'0 0.0
2018-May-29 05:55N 43°52' E 010°15'0 0.0
2018-May-29 05:28N 43°52' E 010°15'0 0.0
2018-May-29 04:58N 43°52' E 010°15'0 0.0
2018-May-29 04:28N 43°52' E 010°15'0 0.0
2018-May-29 03:58N 43°52' E 010°15'0 0.0
2018-May-29 03:28N 43°52' E 010°15'0 0.0
2018-May-29 02:55N 43°52' E 010°15'0 0.0
2018-May-29 02:25N 43°52' E 010°15'0 0.0
2018-May-29 01:55N 43°52' E 010°15'0 0.0
2018-May-29 01:28N 43°52' E 010°15'0 0.0
2018-May-29 00:55N 43°52' E 010°15'0 0.0
2018-May-29 00:28N 43°52' E 010°15'0 0.0
2018-May-28 23:58N 43°52' E 010°15'0 0.0
2018-May-28 23:19N 43°52' E 010°15'0 0.0
2018-May-28 22:58N 43°52' E 010°15'0 0.0
2018-May-28 22:19N 43°52' E 010°15'0 0.0
2018-May-28 21:55N 43°52' E 010°15'0 0.0
2018-May-28 21:28N 43°52' E 010°15'0 0.0
2018-May-28 20:58N 43°52' E 010°15'0 0.0
2018-May-28 20:25N 43°52' E 010°15'0 0.0
2018-May-28 19:58N 43°52' E 010°15'0 0.0
2018-May-28 19:25N 43°52' E 010°15'0 0.0
2018-May-28 18:58N 43°52' E 010°15'0 0.0
2018-May-28 18:28N 43°52' E 010°15'0 0.0
2018-May-28 17:55N 43°52' E 010°15'0 0.0
2018-May-28 17:28N 43°52' E 010°15'0 0.0
2018-May-28 16:58N 43°52' E 010°15'0 0.0
2018-May-28 16:28N 43°52' E 010°15'0 0.0
2018-May-28 15:55N 43°52' E 010°15'0 0.0
2018-May-28 15:28N 43°52' E 010°15'0 0.0
2018-May-28 14:58N 43°52' E 010°15'2 3.4
2018-May-28 14:30N 43°53' E 010°13'0 0.2
2018-May-28 13:59N 43°53' E 010°13'0 0.0
2018-May-28 13:29N 43°53' E 010°13'0 0.0
2018-May-28 12:59N 43°53' E 010°13'0 0.1
2018-May-28 12:30N 43°53' E 010°13'2 4.9
2018-May-28 12:00N 43°55' E 010°11'2 3.4
2018-May-28 11:30N 43°56' E 010°09'3 5.8
2018-May-28 11:00N 43°54' E 010°12'3 5.4
2018-May-28 10:30N 43°52' E 010°15'0 0.1
2018-May-28 09:58N 43°52' E 010°15'0 0.0
2018-May-28 09:25N 43°52' E 010°15'0 0.0
2018-May-28 08:55N 43°52' E 010°15'0 0.0
2018-May-28 08:28N 43°52' E 010°15'0 0.0
2018-May-28 07:58N 43°52' E 010°15'0 0.0
2018-May-28 07:28N 43°52' E 010°15'0 0.0
2018-May-28 06:58N 43°52' E 010°15'0 0.0
2018-May-28 06:28N 43°52' E 010°15'0 0.0
2018-May-28 05:58N 43°52' E 010°15'0 0.0
2018-May-28 05:28N 43°52' E 010°15'0 0.0
2018-May-28 04:58N 43°52' E 010°15'0 0.0
2018-May-28 04:28N 43°52' E 010°15'0 0.0
2018-May-28 03:58N 43°52' E 010°15'0 0.0
2018-May-28 03:28N 43°52' E 010°15'0 0.0
2018-May-28 02:58N 43°52' E 010°15'0 0.0
2018-May-28 02:28N 43°52' E 010°15'0 0.0
2018-May-28 01:55N 43°52' E 010°15'0 0.0
2018-May-28 01:28N 43°52' E 010°15'0 0.0
2018-May-28 00:58N 43°52' E 010°15'0 0.0
2018-May-28 00:28N 43°52' E 010°15'0 0.0
2018-May-27 23:49N 43°52' E 010°15'0 0.0
2018-May-27 23:28N 43°52' E 010°15'0 0.0
2018-May-27 22:55N 43°52' E 010°15'0 0.0
2018-May-27 22:28N 43°52' E 010°15'0 0.0
2018-May-27 21:55N 43°52' E 010°15'0 0.0
2018-May-27 21:28N 43°52' E 010°15'0 0.0
2018-May-27 20:58N 43°52' E 010°15'0 0.0
2018-May-27 20:25N 43°52' E 010°15'0 0.0
2018-May-27 19:58N 43°52' E 010°15'0 0.0
2018-May-27 19:28N 43°52' E 010°15'0 0.0
2018-May-27 18:58N 43°52' E 010°15'0 0.0
2018-May-27 18:28N 43°52' E 010°15'0 0.0
2018-May-27 17:58N 43°52' E 010°15'0 0.0
2018-May-27 17:28N 43°52' E 010°15'0 0.0
2018-May-27 16:58N 43°52' E 010°15'0 0.0
2018-May-27 16:28N 43°52' E 010°15'0 0.0
2018-May-27 15:46N 43°52' E 010°15'0 0.0
2018-May-27 15:28N 43°52' E 010°15'2 2.9
2018-May-27 14:57N 43°53' E 010°13'0 0.0
2018-May-27 14:30N 43°53' E 010°13'0 0.0
2018-May-27 14:00N 43°53' E 010°13'0 0.0
2018-May-27 13:30N 43°53' E 010°13'0 0.0
2018-May-27 12:54N 43°53' E 010°13'0 0.0
2018-May-27 12:30N 43°53' E 010°13'2 4.2
2018-May-27 12:00N 43°51' E 010°13'3 6.4
2018-May-27 11:30N 43°48' E 010°14'3 6.5
2018-May-27 10:59N 43°44' E 010°14'4 7.3
2018-May-27 10:30N 43°41' E 010°15'1 0.6
2018-May-27 09:01N 43°41' E 010°16'0 0.0
2018-May-27 08:34N 43°41' E 010°16'0 0.0
2018-May-27 08:25N 43°41' E 010°16'0 0.0
2018-May-27 07:37N 43°41' E 010°16'0 0.0
2018-May-27 07:28N 43°41' E 010°16'0 0.0
2018-May-27 06:49N 43°41' E 010°16'0 0.0
2018-May-27 06:28N 43°41' E 010°16'0 0.0
2018-May-27 05:52N 43°41' E 010°16'0 0.0
2018-May-27 05:22N 43°41' E 010°16'0 0.0
2018-May-27 04:43N 43°41' E 010°16'0 0.0
2018-May-27 04:23N 43°41' E 010°16'0 0.0
2018-May-27 03:37N 43°41' E 010°16'0 0.0
2018-May-27 03:10N 43°41' E 010°16'0 0.0
2018-May-27 02:58N 43°41' E 010°16'0 0.0
2018-May-26 23:13N 43°41' E 010°16'0 0.0
2018-May-26 22:52N 43°41' E 010°16'0 0.0
2018-May-26 21:22N 43°41' E 010°16'0 0.0
2018-May-26 17:53N 43°41' E 010°16'0 0.0
2018-May-26 17:08N 43°41' E 010°16'0 0.0
2018-May-26 16:44N 43°41' E 010°16'0 0.0
2018-May-26 16:26N 43°41' E 010°16'0 0.0
2018-May-26 15:56N 43°41' E 010°16'0 0.0
2018-May-26 14:32N 43°41' E 010°16'0 0.0
2018-May-26 14:17N 43°41' E 010°16'0 0.0
2018-May-26 13:59N 43°41' E 010°16'0 0.0
2018-May-26 13:26N 43°41' E 010°16'0 0.0
2018-May-26 12:56N 43°41' E 010°16'0 0.0
2018-May-26 12:29N 43°41' E 010°16'0 0.0
2018-May-26 11:56N 43°41' E 010°16'0 0.0
2018-May-26 11:26N 43°41' E 010°16'0 0.0
2018-May-26 10:56N 43°41' E 010°16'0 0.0
2018-May-26 10:26N 43°41' E 010°16'0 0.0
2018-May-26 09:56N 43°41' E 010°16'0 0.0
2018-May-26 09:29N 43°41' E 010°16'0 0.0
2018-May-26 08:59N 43°41' E 010°16'0 0.0
2018-May-26 08:23N 43°41' E 010°16'0 0.0
2018-May-26 07:53N 43°41' E 010°16'0 0.0
2018-May-26 06:53N 43°41' E 010°16'0 0.0
2018-May-26 02:20N 43°41' E 010°16'0 0.0
2018-May-26 01:53N 43°41' E 010°16'0 0.0
2018-May-26 01:20N 43°41' E 010°16'0 0.0
2018-May-26 00:47N 43°41' E 010°16'0 0.0
2018-May-25 23:41N 43°41' E 010°16'0 0.0
2018-May-25 22:44N 43°41' E 010°16'0 0.0
2018-May-25 22:29N 43°41' E 010°16'0 0.0
2018-May-25 21:56N 43°41' E 010°16'0 0.0
2018-May-25 21:29N 43°41' E 010°16'0 0.0
2018-May-25 20:50N 43°41' E 010°16'0 0.0
2018-May-25 20:29N 43°41' E 010°16'0 0.0
2018-May-25 19:59N 43°41' E 010°16'0 0.0
2018-May-25 19:20N 43°41' E 010°16'0 0.0
2018-May-25 18:56N 43°41' E 010°16'0 0.0
2018-May-25 17:44N 43°41' E 010°16'0 0.0
2018-May-25 17:29N 43°41' E 010°16'0 0.0
2018-May-25 16:44N 43°41' E 010°16'0 0.0
2018-May-25 16:29N 43°41' E 010°16'0 0.0
2018-May-25 15:56N 43°41' E 010°16'0 0.0
2018-May-25 15:26N 43°41' E 010°16'0 0.0
2018-May-25 14:56N 43°41' E 010°16'0 0.0
2018-May-25 14:29N 43°41' E 010°16'0 0.0
2018-May-25 13:59N 43°41' E 010°16'0 0.0
2018-May-25 13:24N 43°41' E 010°16'0 0.0
2018-May-25 13:00N 43°41' E 010°16'0 0.0
2018-May-25 12:30N 43°41' E 010°16'0 0.0
2018-May-25 11:54N 43°41' E 010°16'0 0.0
2018-May-25 11:30N 43°41' E 010°16'0 0.0
2018-May-25 10:45N 43°41' E 010°16'0 0.0
2018-May-25 10:21N 43°41' E 010°16'0 0.0
2018-May-25 10:00N 43°41' E 010°16'0 0.0
2018-May-25 09:27N 43°41' E 010°16'0 0.0
2018-May-25 08:24N 43°41' E 010°16'0 0.0
2018-May-25 02:18N 43°41' E 010°16'0 0.0
2018-May-25 01:35N 43°41' E 010°16'0 0.0
2018-May-25 01:18N 43°41' E 010°16'0 0.0
2018-May-25 00:52N 43°41' E 010°16'0 0.0
2018-May-25 00:19N 43°41' E 010°16'0 0.0
2018-May-24 23:55N 43°41' E 010°16'0 0.0
2018-May-24 23:22N 43°41' E 010°16'0 0.0
2018-May-24 22:58N 43°41' E 010°16'0 0.0
2018-May-24 22:28N 43°41' E 010°16'0 0.0
2018-May-24 21:28N 43°41' E 010°16'0 0.0
2018-May-24 20:52N 43°41' E 010°16'0 0.0
2018-May-24 20:28N 43°41' E 010°16'0 0.0
2018-May-24 19:46N 43°41' E 010°16'0 0.0
2018-May-24 19:16N 43°41' E 010°16'0 0.0
2018-May-24 18:46N 43°41' E 010°16'0 0.0
2018-May-24 17:43N 43°41' E 010°16'0 0.0
2018-May-24 17:25N 43°41' E 010°16'0 0.0
2018-May-24 16:13N 43°41' E 010°16'0 0.0
2018-May-24 15:49N 43°41' E 010°16'0 0.0
2018-May-24 15:01N 43°41' E 010°16'0 0.0
2018-May-24 14:55N 43°41' E 010°16'0 0.0
2018-May-24 14:28N 43°41' E 010°16'0 0.0
2018-May-24 13:55N 43°41' E 010°16'0 0.0
2018-May-24 08:28N 43°41' E 010°16'0 0.0
2018-May-24 07:37N 43°41' E 010°16'0 0.0
2018-May-24 07:28N 43°41' E 010°16'0 0.0
2018-May-24 06:58N 43°41' E 010°16'0 0.0
2018-May-24 06:25N 43°41' E 010°16'0 0.0
2018-May-24 05:58N 43°41' E 010°16'0 0.0
2018-May-24 05:25N 43°41' E 010°16'0 0.0
2018-May-24 04:58N 43°41' E 010°16'0 0.0
2018-May-24 04:28N 43°41' E 010°16'0 0.0
2018-May-24 03:58N 43°41' E 010°16'0 0.0
2018-May-24 03:25N 43°41' E 010°16'0 0.0
2018-May-24 02:55N 43°41' E 010°16'0 0.0
2018-May-24 02:25N 43°41' E 010°16'0 0.0
2018-May-24 01:58N 43°41' E 010°16'0 0.0
2018-May-24 01:28N 43°41' E 010°16'0 0.0
2018-May-24 00:58N 43°41' E 010°16'0 0.0
2018-May-24 00:25N 43°41' E 010°16'0 0.0
2018-May-23 23:55N 43°41' E 010°16'0 0.0
2018-May-23 23:28N 43°41' E 010°16'0 0.0
2018-May-23 22:58N 43°41' E 010°16'0 0.0
2018-May-23 22:28N 43°41' E 010°16'0 0.0
2018-May-23 21:52N 43°41' E 010°16'0 0.0
2018-May-23 21:28N 43°41' E 010°16'0 0.0
2018-May-23 20:55N 43°41' E 010°16'0 0.0
2018-May-23 20:28N 43°41' E 010°16'0 0.0
2018-May-23 19:55N 43°41' E 010°16'0 0.0
2018-May-23 19:28N 43°41' E 010°16'0 0.0
2018-May-23 18:58N 43°41' E 010°16'0 0.0
2018-May-23 18:22N 43°41' E 010°16'0 0.0
2018-May-23 17:58N 43°41' E 010°16'0 0.0
2018-May-23 17:10N 43°41' E 010°16'0 0.0
2018-May-23 16:58N 43°41' E 010°16'0 0.0
2018-May-23 16:28N 43°41' E 010°16'0 0.0
2018-May-23 15:58N 43°41' E 010°16'0 0.0
2018-May-23 15:30N 43°41' E 010°16'0 0.0
2018-May-23 15:00N 43°41' E 010°16'0 0.0
2018-May-23 14:29N 43°41' E 010°16'0 0.0
2018-May-23 13:59N 43°41' E 010°16'0 0.0
2018-May-23 13:23N 43°41' E 010°16'0 0.0
2018-May-23 12:59N 43°41' E 010°16'0 0.0
2018-May-23 12:29N 43°41' E 010°16'0 0.0
2018-May-23 11:35N 43°41' E 010°16'0 0.0
2018-May-23 11:29N 43°41' E 010°16'0 0.0
2018-May-23 10:50N 43°41' E 010°16'  
Track history (hours):
 
Tides and Currents Weather Stations Pressure Air Temp Water Temp Dewpoint Dewpoint Depression Visibility Wind Speed Wind Dir Waves Ship Positions

Tuppence

Last reported at 2018-Jun-02 10:47 UTC. Time now 2018-Jun-21 22:08 UTC.
Position N 43°37' E 010°11'.
Warning: this ship's position is 19 days out of date.

Length 30 m.

Type: Pleasure craft. MMSI: 235086696.

Date/timePositionNaut miles runAvg speedWind from/ knotsBaromVisibWave heightAir tempDewpointWater temp
2018-Jun-02 10:47N 43°37' E 010°11'310.5
2018-Jun-02 10:30N 43°39' E 010°14'2 0.1
2018-Jun-01 12:44N 43°40' E 010°15'2 9.4
2018-Jun-01 12:30N 43°38' E 010°16'2 5.0
2018-Jun-01 12:00N 43°41' E 010°16'0 0.3
2018-Jun-01 11:24N 43°41' E 010°16'0 0.0
2018-Jun-01 11:00N 43°41' E 010°16'0 0.0
2018-Jun-01 10:30N 43°41' E 010°16'0 0.0
2018-Jun-01 10:00N 43°41' E 010°16'0 0.0
2018-Jun-01 09:21N 43°41' E 010°16'0 0.0
2018-Jun-01 09:00N 43°41' E 010°16'0 0.0
2018-Jun-01 08:21N 43°41' E 010°16'0 0.0
2018-Jun-01 07:57N 43°41' E 010°16'0 0.0
2018-Jun-01 07:24N 43°41' E 010°16'0 0.0
2018-Jun-01 07:00N 43°41' E 010°16'0 0.0
2018-Jun-01 06:30N 43°41' E 010°16'0 0.0
2018-Jun-01 06:00N 43°41' E 010°16'0 0.0
2018-May-31 20:51N 43°41' E 010°16'0 0.0
2018-May-31 20:24N 43°41' E 010°16'0 0.0
2018-May-31 19:24N 43°41' E 010°16'0 0.0
2018-May-31 18:36N 43°41' E 010°16'0 0.0
2018-May-31 18:18N 43°41' E 010°16'0 0.0
2018-May-31 15:55N 43°41' E 010°16'0 0.0
2018-May-31 03:32N 43°41' E 010°16'0 0.0
2018-May-31 03:29N 43°41' E 010°16'0 0.0
2018-May-31 00:12N 43°41' E 010°16'0 0.0
2018-May-30 23:57N 43°41' E 010°16'0 0.0
2018-May-30 23:24N 43°41' E 010°16'0 0.0
2018-May-30 22:57N 43°41' E 010°16'0 0.0
2018-May-30 22:21N 43°41' E 010°16'0 0.0
2018-May-30 20:21N 43°41' E 010°16'0 0.0
2018-May-30 19:48N 43°41' E 010°16'0 0.0
2018-May-30 19:27N 43°41' E 010°16'0 0.0
2018-May-30 19:00N 43°41' E 010°16'0 0.0
2018-May-30 18:30N 43°41' E 010°16'0 0.0
2018-May-30 17:48N 43°41' E 010°16'0 0.0
2018-May-30 17:30N 43°41' E 010°16'0 0.0
2018-May-30 16:54N 43°41' E 010°16'0 0.0
2018-May-30 16:30N 43°41' E 010°16'0 0.0
2018-May-30 15:57N 43°41' E 010°16'0 0.0
2018-May-30 15:24N 43°41' E 010°16'0 0.0
2018-May-30 14:54N 43°41' E 010°16'0 0.1
2018-May-30 14:30N 43°41' E 010°16'1 1.2
2018-May-30 13:58N 43°41' E 010°15'0 0.0
2018-May-30 13:28N 43°41' E 010°15'3 7.4
2018-May-30 13:00N 43°43' E 010°12'611.4
2018-May-30 12:30N 43°48' E 010°07'510.6
2018-May-30 12:00N 43°52' E 010°03'510.7
2018-May-30 11:30N 43°56' E 009°58'510.6
2018-May-30 11:00N 44°00' E 009°54'4 6.1
2018-May-30 10:22N 44°03' E 009°50'0 0.0
2018-May-30 09:58N 44°03' E 009°50'0 0.0
2018-May-30 09:22N 44°03' E 009°50'0 0.0
2018-May-30 08:58N 44°03' E 009°50'0 0.0
2018-May-30 08:28N 44°03' E 009°50'0 0.0
2018-May-30 07:52N 44°03' E 009°50'0 0.0
2018-May-30 07:19N 44°03' E 009°50'0 0.0
2018-May-30 06:55N 44°03' E 009°50'0 0.0
2018-May-30 06:28N 44°03' E 009°50'0 0.0
2018-May-30 05:58N 44°03' E 009°50'0 0.0
2018-May-30 05:28N 44°03' E 009°50'0 0.0
2018-May-30 04:58N 44°03' E 009°50'0 0.0
2018-May-30 04:28N 44°03' E 009°50'0 0.0
2018-May-30 03:58N 44°03' E 009°50'0 0.0
2018-May-30 03:28N 44°03' E 009°50'0 0.0
2018-May-30 02:58N 44°03' E 009°50'0 0.0
2018-May-30 02:25N 44°03' E 009°50'0 0.0
2018-May-30 01:58N 44°03' E 009°50'0 0.0
2018-May-30 01:28N 44°03' E 009°50'0 0.0
2018-May-30 00:55N 44°03' E 009°50'0 0.0
2018-May-30 00:28N 44°03' E 009°50'0 0.0
2018-May-29 23:58N 44°03' E 009°50'0 0.0
2018-May-29 23:28N 44°03' E 009°50'0 0.0
2018-May-29 22:58N 44°03' E 009°50'0 0.0
2018-May-29 22:28N 44°03' E 009°50'0 0.0
2018-May-29 21:58N 44°03' E 009°50'0 0.0
2018-May-29 21:28N 44°03' E 009°50'0 0.0
2018-May-29 20:58N 44°03' E 009°50'0 0.0
2018-May-29 20:28N 44°03' E 009°50'0 0.0
2018-May-29 19:58N 44°03' E 009°50'0 0.0
2018-May-29 19:28N 44°03' E 009°50'0 0.0
2018-May-29 18:55N 44°03' E 009°50'0 0.0
2018-May-29 18:28N 44°03' E 009°50'0 0.0
2018-May-29 17:58N 44°03' E 009°50'0 0.0
2018-May-29 17:28N 44°03' E 009°50'0 0.0
2018-May-29 16:58N 44°03' E 009°50'0 0.0
2018-May-29 16:28N 44°03' E 009°50'0 0.4
2018-May-29 16:00N 44°03' E 009°50'0 0.5
2018-May-29 15:30N 44°03' E 009°51'0 0.0
2018-May-29 15:00N 44°03' E 009°51'0 0.0
2018-May-29 14:29N 44°03' E 009°51'0 0.0
2018-May-29 13:59N 44°03' E 009°51'0 0.0
2018-May-29 13:29N 44°03' E 009°51'2 4.4
2018-May-29 13:01N 44°02' E 009°53'5 9.0
2018-May-29 12:28N 43°60' E 009°59'4 8.8
2018-May-29 11:59N 43°57' E 010°04'4 8.7
2018-May-29 11:31N 43°55' E 010°09'4 8.3
2018-May-29 11:00N 43°53' E 010°13'1 2.2
2018-May-29 10:29N 43°52' E 010°15'0 0.0
2018-May-29 09:58N 43°52' E 010°15'0 0.0
2018-May-29 09:28N 43°52' E 010°15'0 0.0
2018-May-29 08:55N 43°52' E 010°15'0 0.0
2018-May-29 08:22N 43°52' E 010°15'0 0.0
2018-May-29 07:58N 43°52' E 010°15'0 0.0
2018-May-29 07:28N 43°52' E 010°15'0 0.0
2018-May-29 06:55N 43°52' E 010°15'0 0.0
2018-May-29 06:28N 43°52' E 010°15'0 0.0
2018-May-29 05:55N 43°52' E 010°15'0 0.0
2018-May-29 05:28N 43°52' E 010°15'0 0.0
2018-May-29 04:58N 43°52' E 010°15'0 0.0
2018-May-29 04:28N 43°52' E 010°15'0 0.0
2018-May-29 03:58N 43°52' E 010°15'0 0.0
2018-May-29 03:28N 43°52' E 010°15'0 0.0
2018-May-29 02:55N 43°52' E 010°15'0 0.0
2018-May-29 02:25N 43°52' E 010°15'0 0.0
2018-May-29 01:55N 43°52' E 010°15'0 0.0
2018-May-29 01:28N 43°52' E 010°15'0 0.0
2018-May-29 00:55N 43°52' E 010°15'0 0.0
2018-May-29 00:28N 43°52' E 010°15'0 0.0
2018-May-28 23:58N 43°52' E 010°15'0 0.0
2018-May-28 23:19N 43°52' E 010°15'0 0.0
2018-May-28 22:58N 43°52' E 010°15'0 0.0
2018-May-28 22:19N 43°52' E 010°15'0 0.0
2018-May-28 21:55N 43°52' E 010°15'0 0.0
2018-May-28 21:28N 43°52' E 010°15'0 0.0
2018-May-28 20:58N 43°52' E 010°15'0 0.0
2018-May-28 20:25N 43°52' E 010°15'0 0.0
2018-May-28 19:58N 43°52' E 010°15'0 0.0
2018-May-28 19:25N 43°52' E 010°15'0 0.0
2018-May-28 18:58N 43°52' E 010°15'0 0.0
2018-May-28 18:28N 43°52' E 010°15'0 0.0
2018-May-28 17:55N 43°52' E 010°15'0 0.0
2018-May-28 17:28N 43°52' E 010°15'0 0.0
2018-May-28 16:58N 43°52' E 010°15'0 0.0
2018-May-28 16:28N 43°52' E 010°15'0 0.0
2018-May-28 15:55N 43°52' E 010°15'0 0.0
2018-May-28 15:28N 43°52' E 010°15'0 0.0
2018-May-28 14:58N 43°52' E 010°15'2 3.4
2018-May-28 14:30N 43°53' E 010°13'0 0.2
2018-May-28 13:59N 43°53' E 010°13'0 0.0
2018-May-28 13:29N 43°53' E 010°13'0 0.0
2018-May-28 12:59N 43°53' E 010°13'0 0.1
2018-May-28 12:30N 43°53' E 010°13'2 4.9
2018-May-28 12:00N 43°55' E 010°11'2 3.4
2018-May-28 11:30N 43°56' E 010°09'3 5.8
2018-May-28 11:00N 43°54' E 010°12'3 5.4
2018-May-28 10:30N 43°52' E 010°15'0 0.1
2018-May-28 09:58N 43°52' E 010°15'0 0.0
2018-May-28 09:25N 43°52' E 010°15'0 0.0
2018-May-28 08:55N 43°52' E 010°15'0 0.0
2018-May-28 08:28N 43°52' E 010°15'0 0.0
2018-May-28 07:58N 43°52' E 010°15'0 0.0
2018-May-28 07:28N 43°52' E 010°15'0 0.0
2018-May-28 06:58N 43°52' E 010°15'0 0.0
2018-May-28 06:28N 43°52' E 010°15'0 0.0
2018-May-28 05:58N 43°52' E 010°15'0 0.0
2018-May-28 05:28N 43°52' E 010°15'0 0.0
2018-May-28 04:58N 43°52' E 010°15'0 0.0
2018-May-28 04:28N 43°52' E 010°15'0 0.0
2018-May-28 03:58N 43°52' E 010°15'0 0.0
2018-May-28 03:28N 43°52' E 010°15'0 0.0
2018-May-28 02:58N 43°52' E 010°15'0 0.0
2018-May-28 02:28N 43°52' E 010°15'0 0.0
2018-May-28 01:55N 43°52' E 010°15'0 0.0
2018-May-28 01:28N 43°52' E 010°15'0 0.0
2018-May-28 00:58N 43°52' E 010°15'0 0.0
2018-May-28 00:28N 43°52' E 010°15'0 0.0
2018-May-27 23:49N 43°52' E 010°15'0 0.0
2018-May-27 23:28N 43°52' E 010°15'0 0.0
2018-May-27 22:55N 43°52' E 010°15'0 0.0
2018-May-27 22:28N 43°52' E 010°15'0 0.0
2018-May-27 21:55N 43°52' E 010°15'0 0.0
2018-May-27 21:28N 43°52' E 010°15'0 0.0
2018-May-27 20:58N 43°52' E 010°15'0 0.0
2018-May-27 20:25N 43°52' E 010°15'0 0.0
2018-May-27 19:58N 43°52' E 010°15'0 0.0
2018-May-27 19:28N 43°52' E 010°15'0 0.0
2018-May-27 18:58N 43°52' E 010°15'0 0.0
2018-May-27 18:28N 43°52' E 010°15'0 0.0
2018-May-27 17:58N 43°52' E 010°15'0 0.0
2018-May-27 17:28N 43°52' E 010°15'0 0.0
2018-May-27 16:58N 43°52' E 010°15'0 0.0
2018-May-27 16:28N 43°52' E 010°15'0 0.0
2018-May-27 15:46N 43°52' E 010°15'0 0.0
2018-May-27 15:28N 43°52' E 010°15'2 2.9
2018-May-27 14:57N 43°53' E 010°13'0 0.0
2018-May-27 14:30N 43°53' E 010°13'0 0.0
2018-May-27 14:00N 43°53' E 010°13'0 0.0
2018-May-27 13:30N 43°53' E 010°13'0 0.0
2018-May-27 12:54N 43°53' E 010°13'0 0.0
2018-May-27 12:30N 43°53' E 010°13'2 4.2
2018-May-27 12:00N 43°51' E 010°13'3 6.4
2018-May-27 11:30N 43°48' E 010°14'3 6.5
2018-May-27 10:59N 43°44' E 010°14'4 7.3
2018-May-27 10:30N 43°41' E 010°15'1 0.6
2018-May-27 09:01N 43°41' E 010°16'0 0.0
2018-May-27 08:34N 43°41' E 010°16'0 0.0
2018-May-27 08:25N 43°41' E 010°16'0 0.0
2018-May-27 07:37N 43°41' E 010°16'0 0.0
2018-May-27 07:28N 43°41' E 010°16'0 0.0
2018-May-27 06:49N 43°41' E 010°16'0 0.0
2018-May-27 06:28N 43°41' E 010°16'0 0.0
2018-May-27 05:52N 43°41' E 010°16'0 0.0
2018-May-27 05:22N 43°41' E 010°16'0 0.0
2018-May-27 04:43N 43°41' E 010°16'0 0.0
2018-May-27 04:23N 43°41' E 010°16'0 0.0
2018-May-27 03:37N 43°41' E 010°16'0 0.0
2018-May-27 03:10N 43°41' E 010°16'0 0.0
2018-May-27 02:58N 43°41' E 010°16'0 0.0
2018-May-26 23:13N 43°41' E 010°16'0 0.0
2018-May-26 22:52N 43°41' E 010°16'0 0.0
2018-May-26 21:22N 43°41' E 010°16'0 0.0
2018-May-26 17:53N 43°41' E 010°16'0 0.0
2018-May-26 17:08N 43°41' E 010°16'0 0.0
2018-May-26 16:44N 43°41' E 010°16'0 0.0
2018-May-26 16:26N 43°41' E 010°16'0 0.0
2018-May-26 15:56N 43°41' E 010°16'0 0.0
2018-May-26 14:32N 43°41' E 010°16'0 0.0
2018-May-26 14:17N 43°41' E 010°16'0 0.0
2018-May-26 13:59N 43°41' E 010°16'0 0.0
2018-May-26 13:26N 43°41' E 010°16'0 0.0
2018-May-26 12:56N 43°41' E 010°16'0 0.0
2018-May-26 12:29N 43°41' E 010°16'0 0.0
2018-May-26 11:56N 43°41' E 010°16'0 0.0
2018-May-26 11:26N 43°41' E 010°16'0 0.0
2018-May-26 10:56N 43°41' E 010°16'0 0.0
2018-May-26 10:26N 43°41' E 010°16'0 0.0
2018-May-26 09:56N 43°41' E 010°16'0 0.0
2018-May-26 09:29N 43°41' E 010°16'0 0.0
2018-May-26 08:59N 43°41' E 010°16'0 0.0
2018-May-26 08:23N 43°41' E 010°16'0 0.0
2018-May-26 07:53N 43°41' E 010°16'0 0.0
2018-May-26 06:53N 43°41' E 010°16'0 0.0
2018-May-26 02:20N 43°41' E 010°16'0 0.0
2018-May-26 01:53N 43°41' E 010°16'0 0.0
2018-May-26 01:20N 43°41' E 010°16'0 0.0
2018-May-26 00:47N 43°41' E 010°16'0 0.0
2018-May-25 23:41N 43°41' E 010°16'0 0.0
2018-May-25 22:44N 43°41' E 010°16'0 0.0
2018-May-25 22:29N 43°41' E 010°16'0 0.0
2018-May-25 21:56N 43°41' E 010°16'0 0.0
2018-May-25 21:29N 43°41' E 010°16'0 0.0
2018-May-25 20:50N 43°41' E 010°16'0 0.0
2018-May-25 20:29N 43°41' E 010°16'0 0.0
2018-May-25 19:59N 43°41' E 010°16'0 0.0
2018-May-25 19:20N 43°41' E 010°16'0 0.0
2018-May-25 18:56N 43°41' E 010°16'0 0.0
2018-May-25 17:44N 43°41' E 010°16'0 0.0
2018-May-25 17:29N 43°41' E 010°16'0 0.0
2018-May-25 16:44N 43°41' E 010°16'0 0.0
2018-May-25 16:29N 43°41' E 010°16'0 0.0
2018-May-25 15:56N 43°41' E 010°16'0 0.0
2018-May-25 15:26N 43°41' E 010°16'0 0.0
2018-May-25 14:56N 43°41' E 010°16'0 0.0
2018-May-25 14:29N 43°41' E 010°16'0 0.0
2018-May-25 13:59N 43°41' E 010°16'0 0.0
2018-May-25 13:24N 43°41' E 010°16'0 0.0
2018-May-25 13:00N 43°41' E 010°16'0 0.0
2018-May-25 12:30N 43°41' E 010°16'0 0.0
2018-May-25 11:54N 43°41' E 010°16'0 0.0
2018-May-25 11:30N 43°41' E 010°16'0 0.0
2018-May-25 10:45N 43°41' E 010°16'0 0.0
2018-May-25 10:21N 43°41' E 010°16'0 0.0
2018-May-25 10:00N 43°41' E 010°16'0 0.0
2018-May-25 09:27N 43°41' E 010°16'0 0.0
2018-May-25 08:24N 43°41' E 010°16'0 0.0
2018-May-25 02:18N 43°41' E 010°16'0 0.0
2018-May-25 01:35N 43°41' E 010°16'0 0.0
2018-May-25 01:18N 43°41' E 010°16'0 0.0
2018-May-25 00:52N 43°41' E 010°16'0 0.0
2018-May-25 00:19N 43°41' E 010°16'0 0.0
2018-May-24 23:55N 43°41' E 010°16'0 0.0
2018-May-24 23:22N 43°41' E 010°16'0 0.0
2018-May-24 22:58N 43°41' E 010°16'0 0.0
2018-May-24 22:28N 43°41' E 010°16'0 0.0
2018-May-24 21:28N 43°41' E 010°16'0 0.0
2018-May-24 20:52N 43°41' E 010°16'0 0.0
2018-May-24 20:28N 43°41' E 010°16'0 0.0
2018-May-24 19:46N 43°41' E 010°16'0 0.0
2018-May-24 19:16N 43°41' E 010°16'0 0.0
2018-May-24 18:46N 43°41' E 010°16'0 0.0
2018-May-24 17:43N 43°41' E 010°16'0 0.0
2018-May-24 17:25N 43°41' E 010°16'0 0.0
2018-May-24 16:13N 43°41' E 010°16'0 0.0
2018-May-24 15:49N 43°41' E 010°16'0 0.0
2018-May-24 15:01N 43°41' E 010°16'0 0.0
2018-May-24 14:55N 43°41' E 010°16'0 0.0
2018-May-24 14:28N 43°41' E 010°16'0 0.0
2018-May-24 13:55N 43°41' E 010°16'0 0.0
2018-May-24 08:28N 43°41' E 010°16'0 0.0
2018-May-24 07:37N 43°41' E 010°16'0 0.0
2018-May-24 07:28N 43°41' E 010°16'0 0.0
2018-May-24 06:58N 43°41' E 010°16'0 0.0
2018-May-24 06:25N 43°41' E 010°16'0 0.0
2018-May-24 05:58N 43°41' E 010°16'0 0.0
2018-May-24 05:25N 43°41' E 010°16'0 0.0
2018-May-24 04:58N 43°41' E 010°16'0 0.0
2018-May-24 04:28N 43°41' E 010°16'0 0.0
2018-May-24 03:58N 43°41' E 010°16'0 0.0
2018-May-24 03:25N 43°41' E 010°16'0 0.0
2018-May-24 02:55N 43°41' E 010°16'0 0.0
2018-May-24 02:25N 43°41' E 010°16'0 0.0
2018-May-24 01:58N 43°41' E 010°16'0 0.0
2018-May-24 01:28N 43°41' E 010°16'0 0.0
2018-May-24 00:58N 43°41' E 010°16'0 0.0
2018-May-24 00:25N 43°41' E 010°16'0 0.0
2018-May-23 23:55N 43°41' E 010°16'0 0.0
2018-May-23 23:28N 43°41' E 010°16'0 0.0
2018-May-23 22:58N 43°41' E 010°16'0 0.0
2018-May-23 22:28N 43°41' E 010°16'0 0.0
2018-May-23 21:52N 43°41' E 010°16'0 0.0
2018-May-23 21:28N 43°41' E 010°16'0 0.0
2018-May-23 20:55N 43°41' E 010°16'0 0.0
2018-May-23 20:28N 43°41' E 010°16'0 0.0
2018-May-23 19:55N 43°41' E 010°16'0 0.0
2018-May-23 19:28N 43°41' E 010°16'0 0.0
2018-May-23 18:58N 43°41' E 010°16'0 0.0
2018-May-23 18:22N 43°41' E 010°16'0 0.0
2018-May-23 17:58N 43°41' E 010°16'0 0.0
2018-May-23 17:10N 43°41' E 010°16'0 0.0
2018-May-23 16:58N 43°41' E 010°16'0 0.0
2018-May-23 16:28N 43°41' E 010°16'0 0.0
2018-May-23 15:58N 43°41' E 010°16'0 0.0
2018-May-23 15:30N 43°41' E 010°16'0 0.0
2018-May-23 15:00N 43°41' E 010°16'0 0.0
2018-May-23 14:29N 43°41' E 010°16'0 0.0
2018-May-23 13:59N 43°41' E 010°16'0 0.0
2018-May-23 13:23N 43°41' E 010°16'0 0.0
2018-May-23 12:59N 43°41' E 010°16'0 0.0
2018-May-23 12:29N 43°41' E 010°16'0 0.0
2018-May-23 11:35N 43°41' E 010°16'0 0.0
2018-May-23 11:29N 43°41' E 010°16'0 0.0
2018-May-23 10:50N 43°41' E 010°16'  

Dump ship's entire track history